PWSweather.com
Personal Weather Stations
Station Observations
TARRYHILL
Tarrytown, NY 10591

Tarrytown, NY 10591

Lat: 41.05185, Lon: -73.85296

Elevation: 341

Station Type: Davis Vantage Vue

Latest ConditionsUpdated 10:00:41 AM EDT Wednesday, Apr 23, 2014
Currently Today's Max Today's Min Today's Average
Temperature 49.4°F9.7°C 56.9°F13.8°C 47.8°F8.8°C 51.9°F11.1°C
Dew Point 37.3°F2.9°C 52.0°F11.1°C 37.2°F2.9°C 44.2°F6.8°C
Winds 5.9 mph S9.5 kmh S 6.7 mph NE10.8 kmh NE - 2.2 mph 3.5 kmh
Wind Gusts 13.0 mph20.9 kmh 17.0 mph27.4 kmh - -
Humidity 63% 86% 62% 75%
Pressure 29.59 in1002.0 mb 29.59 in1002.0 mb 29.48 in998.3 mb -
Hour Temp Dew Point Humidity Winds Wind Gusts Pressure Precip Precip Rate Daily Precip Total
10:00 AM 49.4°F9.7°C 37.3°F2.9°C 63% 5.9 mph S9.5 kmh S 13.0 mph20.9 kmh 29.59 in1002.0 mb 0.00 in0.0 mm 0.00 in/hr0.0 mm/hr 0.00 in0.0 mm
09:50 AM 49.7°F9.8°C 37.6°F3.1°C 63% 3.9 mph NW6.3 kmh NW 6.0 mph9.7 kmh 29.58 in1001.7 mb 0.00 in0.0 mm 0.00 in/hr0.0 mm/hr 0.00 in0.0 mm
09:40 AM 49.7°F9.8°C 37.2°F2.9°C 62% 6.7 mph NE10.8 kmh NE 9.0 mph14.5 kmh 29.58 in1001.7 mb 0.00 in0.0 mm 0.00 in/hr0.0 mm/hr 0.00 in0.0 mm
09:30 AM 49.8°F9.9°C 38.1°F3.4°C 64% 2.2 mph ESE3.5 kmh ESE 4.0 mph6.4 kmh 29.58 in1001.7 mb 0.00 in0.0 mm 0.00 in/hr0.0 mm/hr 0.00 in0.0 mm
09:20 AM 49.5°F9.7°C 37.4°F3.0°C 63% 5.6 mph N9.0 kmh N 9.0 mph14.5 kmh 29.58 in1001.7 mb 0.00 in0.0 mm 0.00 in/hr0.0 mm/hr 0.00 in0.0 mm
09:10 AM 49.9°F9.9°C 37.8°F3.2°C 63% 1.8 mph NW2.9 kmh NW 5.0 mph8.0 kmh 29.58 in1001.7 mb 0.00 in0.0 mm 0.00 in/hr0.0 mm/hr 0.00 in0.0 mm
09:00 AM 49.5°F9.7°C 37.8°F3.2°C 64% 2.4 mph NW3.9 kmh NW 6.0 mph9.7 kmh 29.58 in1001.7 mb 0.00 in0.0 mm 0.00 in/hr0.0 mm/hr 0.00 in0.0 mm
08:50 AM 49.2°F9.6°C 37.9°F3.3°C 65% 3.2 mph SW5.1 kmh SW 7.0 mph11.3 kmh 29.58 in1001.7 mb 0.00 in0.0 mm 0.00 in/hr0.0 mm/hr 0.00 in0.0 mm
08:40 AM 49.0°F9.4°C 37.4°F3.0°C 64% 4.7 mph WNW7.6 kmh WNW 6.0 mph9.7 kmh 29.58 in1001.7 mb 0.00 in0.0 mm 0.00 in/hr0.0 mm/hr 0.00 in0.0 mm
08:30 AM 48.9°F9.4°C 37.6°F3.1°C 65% 4.6 mph WSW7.4 kmh WSW 6.0 mph9.7 kmh 29.58 in1001.7 mb 0.00 in0.0 mm 0.00 in/hr0.0 mm/hr 0.00 in0.0 mm
08:21 AM 48.4°F9.1°C 37.5°F3.1°C 66% 3.5 mph NE5.6 kmh NE 8.0 mph12.9 kmh 29.57 in1001.4 mb 0.00 in0.0 mm 0.00 in/hr0.0 mm/hr 0.00 in0.0 mm
08:10 AM 48.1°F8.9°C 37.7°F3.2°C 67% 6.0 mph SSE9.7 kmh SSE 17.0 mph27.4 kmh 29.57 in1001.4 mb 0.00 in0.0 mm 0.00 in/hr0.0 mm/hr 0.00 in0.0 mm
08:00 AM 48.0°F8.9°C 37.6°F3.1°C 67% 3.9 mph NW6.3 kmh NW 5.0 mph8.0 kmh 29.57 in1001.4 mb 0.00 in0.0 mm 0.00 in/hr0.0 mm/hr 0.00 in0.0 mm
07:50 AM 47.9°F8.8°C 37.8°F3.2°C 68% 2.1 mph W3.4 kmh W 6.0 mph9.7 kmh 29.57 in1001.4 mb 0.00 in0.0 mm 0.00 in/hr0.0 mm/hr 0.00 in0.0 mm
07:40 AM 47.8°F8.8°C 38.1°F3.4°C 69% 2.9 mph WSW4.7 kmh WSW 6.0 mph9.7 kmh 29.56 in1001.0 mb 0.00 in0.0 mm 0.00 in/hr0.0 mm/hr 0.00 in0.0 mm
07:30 AM 47.9°F8.8°C 38.6°F3.7°C 70% 4.0 mph W6.4 kmh W 6.0 mph9.7 kmh 29.56 in1001.0 mb 0.00 in0.0 mm 0.00 in/hr0.0 mm/hr 0.00 in0.0 mm
07:20 AM 48.0°F8.9°C 39.0°F3.9°C 71% 3.0 mph SE4.8 kmh SE 4.0 mph6.4 kmh 29.56 in1001.0 mb 0.00 in0.0 mm 0.00 in/hr0.0 mm/hr 0.00 in0.0 mm
07:10 AM 47.9°F8.8°C 39.3°F4.1°C 72% 1.7 mph NW2.7 kmh NW 4.0 mph6.4 kmh 29.56 in1001.0 mb 0.00 in0.0 mm 0.00 in/hr0.0 mm/hr 0.00 in0.0 mm
07:00 AM 47.9°F8.8°C 39.3°F4.1°C 72% 2.9 mph NW4.7 kmh NW 9.0 mph14.5 kmh 29.55 in1000.7 mb 0.00 in0.0 mm 0.00 in/hr0.0 mm/hr 0.00 in0.0 mm
06:50 AM 47.9°F8.8°C 39.3°F4.1°C 72% 3.0 mph W4.8 kmh W 9.0 mph14.5 kmh 29.56 in1001.0 mb 0.00 in0.0 mm 0.00 in/hr0.0 mm/hr 0.00 in0.0 mm
06:40 AM 48.0°F8.9°C 39.4°F4.1°C 72% 3.6 mph E5.8 kmh E 4.0 mph6.4 kmh 29.56 in1001.0 mb 0.00 in0.0 mm 0.00 in/hr0.0 mm/hr 0.00 in0.0 mm
06:30 AM 48.1°F8.9°C 39.5°F4.2°C 72% 4.7 mph NNW7.6 kmh NNW 11.0 mph17.7 kmh 29.56 in1001.0 mb 0.00 in0.0 mm 0.00 in/hr0.0 mm/hr 0.00 in0.0 mm
06:20 AM 48.2°F9.0°C 39.9°F4.4°C 73% 3.8 mph ENE6.1 kmh ENE 10.0 mph16.1 kmh 29.55 in1000.7 mb 0.00 in0.0 mm 0.00 in/hr0.0 mm/hr 0.00 in0.0 mm
06:10 AM 48.3°F9.1°C 40.7°F4.8°C 75% 4.8 mph WSW7.7 kmh WSW 7.0 mph11.3 kmh 29.55 in1000.7 mb 0.00 in0.0 mm 0.00 in/hr0.0 mm/hr 0.00 in0.0 mm
06:00 AM 48.5°F9.2°C 41.3°F5.2°C 76% 1.6 mph SE2.6 kmh SE 1.0 mph1.6 kmh 29.55 in1000.7 mb 0.00 in0.0 mm 0.00 in/hr0.0 mm/hr 0.00 in0.0 mm
05:50 AM 49.0°F9.4°C 41.4°F5.2°C 75% 2.1 mph SE3.4 kmh SE 6.0 mph9.7 kmh 29.54 in1000.3 mb 0.00 in0.0 mm 0.00 in/hr0.0 mm/hr 0.00 in0.0 mm
05:40 AM 49.3°F9.6°C 41.4°F5.2°C 74% 1.6 mph NNE2.6 kmh NNE 4.0 mph6.4 kmh 29.53 in1000.0 mb 0.00 in0.0 mm 0.00 in/hr0.0 mm/hr 0.00 in0.0 mm
05:30 AM 49.7°F9.8°C 41.8°F5.4°C 74% 3.4 mph W5.5 kmh W 7.0 mph11.3 kmh 29.53 in1000.0 mb 0.00 in0.0 mm 0.00 in/hr0.0 mm/hr 0.00 in0.0 mm
05:20 AM 50.4°F10.2°C 42.4°F5.8°C 74% 2.5 mph W4.0 kmh W 5.0 mph8.0 kmh 29.53 in1000.0 mb 0.00 in0.0 mm 0.00 in/hr0.0 mm/hr 0.00 in0.0 mm
05:10 AM 51.2°F10.7°C 43.2°F6.2°C 74% 4.0 mph NW6.4 kmh NW 8.0 mph12.9 kmh 29.52 in999.7 mb 0.00 in0.0 mm 0.00 in/hr0.0 mm/hr 0.00 in0.0 mm
05:00 AM 52.0°F11.1°C 44.6°F7.0°C 76% 2.2 mph S3.5 kmh S 4.0 mph6.4 kmh 29.52 in999.7 mb 0.00 in0.0 mm 0.00 in/hr0.0 mm/hr 0.00 in0.0 mm
04:50 AM 52.4°F11.3°C 45.1°F7.3°C 76% 0.8 mph E1.3 kmh E 1.0 mph1.6 kmh 29.52 in999.7 mb 0.00 in0.0 mm 0.00 in/hr0.0 mm/hr 0.00 in0.0 mm
04:40 AM 52.8°F11.6°C 45.4°F7.4°C 76% 2.3 mph W3.7 kmh W 10.0 mph16.1 kmh 29.52 in999.7 mb 0.00 in0.0 mm 0.00 in/hr0.0 mm/hr 0.00 in0.0 mm
04:30 AM 52.9°F11.6°C 45.9°F7.7°C 77% 0.3 mph W0.5 kmh W 6.0 mph9.7 kmh 29.51 in999.3 mb 0.00 in0.0 mm 0.00 in/hr0.0 mm/hr 0.00 in0.0 mm
04:20 AM 52.9°F11.6°C 46.2°F7.9°C 78% 0.8 mph SE1.3 kmh SE 5.0 mph8.0 kmh 29.51 in999.3 mb 0.00 in0.0 mm 0.00 in/hr0.0 mm/hr 0.00 in0.0 mm
04:10 AM 52.9°F11.6°C 46.6°F8.1°C 79% 0.4 mph NW0.6 kmh NW 3.0 mph4.8 kmh 29.50 in999.0 mb 0.00 in0.0 mm 0.00 in/hr0.0 mm/hr 0.00 in0.0 mm
04:00 AM 53.1°F11.7°C 46.8°F8.2°C 79% 0.5 mph NNW0.8 kmh NNW 2.0 mph3.2 kmh 29.50 in999.0 mb 0.00 in0.0 mm 0.00 in/hr0.0 mm/hr 0.00 in0.0 mm
03:50 AM 53.5°F11.9°C 46.8°F8.2°C 78% 0.5 mph NNW0.8 kmh NNW 1.0 mph1.6 kmh 29.50 in999.0 mb 0.00 in0.0 mm 0.00 in/hr0.0 mm/hr 0.00 in0.0 mm
03:40 AM 53.7°F12.1°C 47.0°F8.3°C 78% 2.3 mph SE3.7 kmh SE 4.0 mph6.4 kmh 29.51 in999.3 mb 0.00 in0.0 mm 0.00 in/hr0.0 mm/hr 0.00 in0.0 mm
03:30 AM 53.9°F12.2°C 47.5°F8.6°C 79% 0.5 mph S0.8 kmh S 1.0 mph1.6 kmh 29.51 in999.3 mb 0.00 in0.0 mm 0.00 in/hr0.0 mm/hr 0.00 in0.0 mm
03:20 AM 54.1°F12.3°C 47.7°F8.7°C 79% 1.8 mph WSW2.9 kmh WSW 7.0 mph11.3 kmh 29.51 in999.3 mb 0.00 in0.0 mm 0.00 in/hr0.0 mm/hr 0.00 in0.0 mm
03:10 AM 53.8°F12.1°C 47.8°F8.8°C 80% 1.5 mph SSE2.4 kmh SSE 5.0 mph8.0 kmh 29.50 in999.0 mb 0.00 in0.0 mm 0.00 in/hr0.0 mm/hr 0.00 in0.0 mm
03:00 AM 54.0°F12.2°C 48.3°F9.1°C 81% 0.5 mph SW0.8 kmh SW 1.0 mph1.6 kmh 29.50 in999.0 mb 0.00 in0.0 mm 0.00 in/hr0.0 mm/hr 0.00 in0.0 mm
02:50 AM 54.5°F12.5°C 48.5°F9.2°C 80% 2.3 mph N3.7 kmh N 5.0 mph8.0 kmh 29.48 in998.3 mb 0.00 in0.0 mm 0.00 in/hr0.0 mm/hr 0.00 in0.0 mm
02:40 AM 54.7°F12.6°C 49.3°F9.6°C 82% 3.2 mph NNW5.1 kmh NNW 6.0 mph9.7 kmh 29.49 in998.6 mb 0.00 in0.0 mm 0.00 in/hr0.0 mm/hr 0.00 in0.0 mm
02:30 AM 55.0°F12.8°C 50.3°F10.2°C 84% 1.2 mph NW1.9 kmh NW 3.0 mph4.8 kmh 29.49 in998.6 mb 0.00 in0.0 mm 0.00 in/hr0.0 mm/hr 0.00 in0.0 mm
02:20 AM 55.3°F12.9°C 50.5°F10.3°C 84% 1.1 mph E1.8 kmh E 4.0 mph6.4 kmh 29.50 in999.0 mb 0.00 in0.0 mm 0.00 in/hr0.0 mm/hr 0.00 in0.0 mm
02:10 AM 55.5°F13.1°C 50.7°F10.4°C 84% Calm Calm -- 29.50 in999.0 mb 0.00 in0.0 mm 0.00 in/hr0.0 mm/hr 0.00 in0.0 mm
02:00 AM 55.7°F13.2°C 51.0°F10.6°C 84% Calm Calm 1.0 mph1.6 kmh 29.50 in999.0 mb 0.00 in0.0 mm 0.00 in/hr0.0 mm/hr 0.00 in0.0 mm
01:50 AM 55.9°F13.3°C 51.1°F10.6°C 84% 0.9 mph SW1.4 kmh SW 2.0 mph3.2 kmh 29.50 in999.0 mb 0.00 in0.0 mm 0.00 in/hr0.0 mm/hr 0.00 in0.0 mm
01:40 AM 56.6°F13.7°C 51.2°F10.7°C 82% 0.3 mph SW0.5 kmh SW 1.0 mph1.6 kmh 29.51 in999.3 mb 0.00 in0.0 mm 0.00 in/hr0.0 mm/hr 0.00 in0.0 mm
01:30 AM 56.6°F13.7°C 51.5°F10.8°C 83% 0.3 mph W0.5 kmh W 1.0 mph1.6 kmh 29.51 in999.3 mb 0.00 in0.0 mm 0.00 in/hr0.0 mm/hr 0.00 in0.0 mm
01:20 AM 56.1°F13.4°C 51.7°F10.9°C 85% 0.1 mph SW0.2 kmh SW 1.0 mph1.6 kmh 29.51 in999.3 mb 0.00 in0.0 mm 0.00 in/hr0.0 mm/hr 0.00 in0.0 mm
01:10 AM 55.7°F13.2°C 51.5°F10.8°C 86% 0.8 mph S1.3 kmh S 1.0 mph1.6 kmh 29.51 in999.3 mb 0.00 in0.0 mm 0.00 in/hr0.0 mm/hr 0.00 in0.0 mm
01:00 AM 56.9°F13.8°C 51.8°F11.0°C 83% Calm Calm -- 29.50 in999.0 mb 0.00 in0.0 mm 0.00 in/hr0.0 mm/hr 0.00 in0.0 mm
12:50 AM 56.5°F13.6°C 51.7°F10.9°C 84% Calm Calm -- 29.50 in999.0 mb 0.00 in0.0 mm 0.00 in/hr0.0 mm/hr 0.00 in0.0 mm
12:40 AM 56.3°F13.5°C 51.9°F11.1°C 85% Calm Calm 1.0 mph1.6 kmh 29.51 in999.3 mb 0.00 in0.0 mm 0.00 in/hr0.0 mm/hr 0.00 in0.0 mm
12:30 AM 56.3°F13.5°C 51.8°F11.0°C 85% Calm Calm -- 29.51 in999.3 mb 0.00 in0.0 mm 0.00 in/hr0.0 mm/hr 0.00 in0.0 mm
12:20 AM 56.4°F13.6°C 52.0°F11.1°C 85% 0.1 mph SSW0.2 kmh SSW 1.0 mph1.6 kmh 29.50 in999.0 mb 0.00 in0.0 mm 0.00 in/hr0.0 mm/hr 0.00 in0.0 mm
12:10 AM 56.4°F13.6°C 51.9°F11.1°C 85% 0.6 mph S1.0 kmh S 2.0 mph3.2 kmh 29.51 in999.3 mb 0.00 in0.0 mm 0.00 in/hr0.0 mm/hr 0.00 in0.0 mm
12:00 AM 56.5°F13.6°C 52.0°F11.1°C 85% 0.3 mph S0.5 kmh S 2.0 mph3.2 kmh 29.51 in999.3 mb 0.00 in0.0 mm 0.00 in/hr0.0 mm/hr 0.00 in0.0 mm